sensor_id;sensor_type;location;lat;lon;timestamp;temperature;humidity
5136;DHT22;2586;48.710;9.202;2022-12-10T00:00:40;1.10;99.90
5136;DHT22;2586;48.710;9.202;2022-12-10T00:03:05;1.10;99.90
5136;DHT22;2586;48.710;9.202;2022-12-10T00:05:33;1.10;99.90
5136;DHT22;2586;48.710;9.202;2022-12-10T00:07:59;1.10;99.90
5136;DHT22;2586;48.710;9.202;2022-12-10T00:10:25;1.10;99.90
5136;DHT22;2586;48.710;9.202;2022-12-10T00:12:51;1.10;99.90
5136;DHT22;2586;48.710;9.202;2022-12-10T00:15:16;1.00;99.90
5136;DHT22;2586;48.710;9.202;2022-12-10T00:17:42;1.10;99.90
5136;DHT22;2586;48.710;9.202;2022-12-10T00:20:08;1.10;99.90
5136;DHT22;2586;48.710;9.202;2022-12-10T00:22:34;1.10;99.90
5136;DHT22;2586;48.710;9.202;2022-12-10T00:25:00;1.10;99.90
5136;DHT22;2586;48.710;9.202;2022-12-10T00:27:26;1.10;99.90
5136;DHT22;2586;48.710;9.202;2022-12-10T00:29:51;1.00;99.90
5136;DHT22;2586;48.710;9.202;2022-12-10T00:32:17;1.00;99.90
5136;DHT22;2586;48.710;9.202;2022-12-10T00:34:42;1.00;99.90
5136;DHT22;2586;48.710;9.202;2022-12-10T00:37:08;1.00;99.90
5136;DHT22;2586;48.710;9.202;2022-12-10T00:39:33;1.00;99.90
5136;DHT22;2586;48.710;9.202;2022-12-10T00:41:59;1.00;99.90
5136;DHT22;2586;48.710;9.202;2022-12-10T00:44:24;1.00;99.90
5136;DHT22;2586;48.710;9.202;2022-12-10T00:46:50;1.00;99.90
5136;DHT22;2586;48.710;9.202;2022-12-10T00:49:16;1.00;99.90
5136;DHT22;2586;48.710;9.202;2022-12-10T00:51:41;0.90;99.90
5136;DHT22;2586;48.710;9.202;2022-12-10T00:54:07;0.90;99.90
5136;DHT22;2586;48.710;9.202;2022-12-10T00:56:33;1.00;1.00
5136;DHT22;2586;48.710;9.202;2022-12-10T00:59:00;1.00;99.90
5136;DHT22;2586;48.710;9.202;2022-12-10T01:01:28;0.90;99.90
5136;DHT22;2586;48.710;9.202;2022-12-10T01:03:57;1.00;99.90
5136;DHT22;2586;48.710;9.202;2022-12-10T01:06:28;1.00;99.90
5136;DHT22;2586;48.710;9.202;2022-12-10T01:08:57;1.00;99.90
5136;DHT22;2586;48.710;9.202;2022-12-10T01:11:25;1.00;99.90
5136;DHT22;2586;48.710;9.202;2022-12-10T01:13:51;1.00;99.90
5136;DHT22;2586;48.710;9.202;2022-12-10T01:16:19;1.00;99.90
5136;DHT22;2586;48.710;9.202;2022-12-10T01:18:45;1.00;99.90
5136;DHT22;2586;48.710;9.202;2022-12-10T01:21:13;0.90;99.90
5136;DHT22;2586;48.710;9.202;2022-12-10T01:23:41;1.00;1.00
5136;DHT22;2586;48.710;9.202;2022-12-10T01:26:18;1.00;1.00
5136;DHT22;2586;48.710;9.202;2022-12-10T01:28:44;1.00;1.00
5136;DHT22;2586;48.710;9.202;2022-12-10T01:31:31;1.00;99.90
5136;DHT22;2586;48.710;9.202;2022-12-10T01:33:57;1.00;99.90
5136;DHT22;2586;48.710;9.202;2022-12-10T01:36:37;1.00;1.00
5136;DHT22;2586;48.710;9.202;2022-12-10T01:39:06;1.00;99.90
5136;DHT22;2586;48.710;9.202;2022-12-10T01:41:44;1.00;99.90
5136;DHT22;2586;48.710;9.202;2022-12-10T01:46:44;1.00;99.90
5136;DHT22;2586;48.710;9.202;2022-12-10T01:49:15;1.00;99.90
5136;DHT22;2586;48.710;9.202;2022-12-10T01:51:42;1.00;99.90
5136;DHT22;2586;48.710;9.202;2022-12-10T01:54:12;1.00;99.90
5136;DHT22;2586;48.710;9.202;2022-12-10T01:56:41;1.00;99.90
5136;DHT22;2586;48.710;9.202;2022-12-10T01:59:08;1.10;99.90
5136;DHT22;2586;48.710;9.202;2022-12-10T02:02:41;1.00;99.90
5136;DHT22;2586;48.710;9.202;2022-12-10T02:08:17;1.00;99.90
5136;DHT22;2586;48.710;9.202;2022-12-10T02:15:37;1.00;99.90
5136;DHT22;2586;48.710;9.202;2022-12-10T02:18:17;1.00;99.90
5136;DHT22;2586;48.710;9.202;2022-12-10T02:20:48;1.00;99.90
5136;DHT22;2586;48.710;9.202;2022-12-10T02:23:21;1.00;99.90
5136;DHT22;2586;48.710;9.202;2022-12-10T02:26:20;1.00;99.90
5136;DHT22;2586;48.710;9.202;2022-12-10T02:29:15;0.90;99.90
5136;DHT22;2586;48.710;9.202;2022-12-10T02:32:30;1.00;99.90
5136;DHT22;2586;48.710;9.202;2022-12-10T02:34:37;1.00;99.90
5136;DHT22;2586;48.710;9.202;2022-12-10T02:37:07;0.90;99.90
5136;DHT22;2586;48.710;9.202;2022-12-10T02:39:39;0.90;99.90
5136;DHT22;2586;48.710;9.202;2022-12-10T02:42:07;0.90;99.90
5136;DHT22;2586;48.710;9.202;2022-12-10T02:44:37;0.90;99.90
5136;DHT22;2586;48.710;9.202;2022-12-10T02:47:03;0.90;99.90
5136;DHT22;2586;48.710;9.202;2022-12-10T02:49:30;0.90;99.90
5136;DHT22;2586;48.710;9.202;2022-12-10T02:51:56;0.90;99.90
5136;DHT22;2586;48.710;9.202;2022-12-10T02:54:43;0.90;99.90
5136;DHT22;2586;48.710;9.202;2022-12-10T02:57:21;0.80;99.90
5136;DHT22;2586;48.710;9.202;2022-12-10T03:08:03;0.70;99.90
5136;DHT22;2586;48.710;9.202;2022-12-10T03:10:35;0.70;99.90
5136;DHT22;2586;48.710;9.202;2022-12-10T03:13:07;0.70;99.90
5136;DHT22;2586;48.710;9.202;2022-12-10T03:15:34;0.70;99.90
5136;DHT22;2586;48.710;9.202;2022-12-10T03:18:03;0.70;1.00
5136;DHT22;2586;48.710;9.202;2022-12-10T03:20:32;0.70;1.00
5136;DHT22;2586;48.710;9.202;2022-12-10T03:22:59;0.80;1.00
5136;DHT22;2586;48.710;9.202;2022-12-10T03:25:26;0.80;99.90
5136;DHT22;2586;48.710;9.202;2022-12-10T03:27:55;0.80;1.00
5136;DHT22;2586;48.710;9.202;2022-12-10T03:30:22;0.70;1.00
5136;DHT22;2586;48.710;9.202;2022-12-10T03:32:49;0.70;99.90
5136;DHT22;2586;48.710;9.202;2022-12-10T03:35:15;0.70;1.00
5136;DHT22;2586;48.710;9.202;2022-12-10T03:37:42;0.70;99.90
5136;DHT22;2586;48.710;9.202;2022-12-10T03:40:08;0.70;1.00
5136;DHT22;2586;48.710;9.202;2022-12-10T03:42:36;0.70;99.90
5136;DHT22;2586;48.710;9.202;2022-12-10T03:45:03;0.70;1.00
5136;DHT22;2586;48.710;9.202;2022-12-10T03:47:29;0.70;1.00
5136;DHT22;2586;48.710;9.202;2022-12-10T03:49:54;0.70;1.00
5136;DHT22;2586;48.710;9.202;2022-12-10T03:52:20;0.70;1.00
5136;DHT22;2586;48.710;9.202;2022-12-10T03:54:45;0.70;1.00
5136;DHT22;2586;48.710;9.202;2022-12-10T03:57:11;0.70;1.00
5136;DHT22;2586;48.710;9.202;2022-12-10T03:59:36;0.70;1.00
5136;DHT22;2586;48.710;9.202;2022-12-10T04:02:02;0.80;1.00
5136;DHT22;2586;48.710;9.202;2022-12-10T04:04:28;0.70;99.90
5136;DHT22;2586;48.710;9.202;2022-12-10T04:06:54;0.70;1.00
5136;DHT22;2586;48.710;9.202;2022-12-10T04:09:19;0.70;1.00
5136;DHT22;2586;48.710;9.202;2022-12-10T04:11:45;0.70;99.90
5136;DHT22;2586;48.710;9.202;2022-12-10T04:14:12;0.70;1.00
5136;DHT22;2586;48.710;9.202;2022-12-10T04:16:56;0.70;1.00
5136;DHT22;2586;48.710;9.202;2022-12-10T04:19:22;0.70;99.90
5136;DHT22;2586;48.710;9.202;2022-12-10T04:21:48;0.80;99.90
5136;DHT22;2586;48.710;9.202;2022-12-10T04:24:34;0.80;99.90
5136;DHT22;2586;48.710;9.202;2022-12-10T04:27:25;0.80;99.90
5136;DHT22;2586;48.710;9.202;2022-12-10T04:29:52;0.80;99.90
5136;DHT22;2586;48.710;9.202;2022-12-10T04:32:19;0.80;99.90
5136;DHT22;2586;48.710;9.202;2022-12-10T04:34:45;0.70;99.90
5136;DHT22;2586;48.710;9.202;2022-12-10T04:37:11;0.70;99.90
5136;DHT22;2586;48.710;9.202;2022-12-10T04:39:37;0.70;99.90
5136;DHT22;2586;48.710;9.202;2022-12-10T04:42:03;0.70;99.90
5136;DHT22;2586;48.710;9.202;2022-12-10T04:44:29;0.60;99.90
5136;DHT22;2586;48.710;9.202;2022-12-10T04:46:55;0.60;99.90
5136;DHT22;2586;48.710;9.202;2022-12-10T04:49:20;0.60;99.90
5136;DHT22;2586;48.710;9.202;2022-12-10T04:51:46;0.60;99.90
5136;DHT22;2586;48.710;9.202;2022-12-10T04:54:12;0.60;99.90
5136;DHT22;2586;48.710;9.202;2022-12-10T04:56:38;0.70;99.90
5136;DHT22;2586;48.710;9.202;2022-12-10T04:59:04;0.70;99.90
5136;DHT22;2586;48.710;9.202;2022-12-10T05:01:30;0.70;99.90
5136;DHT22;2586;48.710;9.202;2022-12-10T05:03:59;0.70;99.90
5136;DHT22;2586;48.710;9.202;2022-12-10T05:06:25;0.70;99.90
5136;DHT22;2586;48.710;9.202;2022-12-10T05:08:51;0.70;99.90
5136;DHT22;2586;48.710;9.202;2022-12-10T05:11:19;0.70;99.90
5136;DHT22;2586;48.710;9.202;2022-12-10T05:13:45;0.70;99.90
5136;DHT22;2586;48.710;9.202;2022-12-10T05:16:12;0.70;99.90
5136;DHT22;2586;48.710;9.202;2022-12-10T05:18:38;0.80;99.90
5136;DHT22;2586;48.710;9.202;2022-12-10T05:21:07;0.80;99.90
5136;DHT22;2586;48.710;9.202;2022-12-10T05:23:35;0.80;99.90
5136;DHT22;2586;48.710;9.202;2022-12-10T05:26:09;0.80;99.90
5136;DHT22;2586;48.710;9.202;2022-12-10T05:28:38;0.80;38.30
5136;DHT22;2586;48.710;9.202;2022-12-10T05:31:04;0.70;1.00
5136;DHT22;2586;48.710;9.202;2022-12-10T05:33:31;0.70;1.00
5136;DHT22;2586;48.710;9.202;2022-12-10T05:36:02;0.80;1.00
5136;DHT22;2586;48.710;9.202;2022-12-10T05:38:30;0.70;1.00
5136;DHT22;2586;48.710;9.202;2022-12-10T05:41:00;0.70;50.30
5136;DHT22;2586;48.710;9.202;2022-12-10T05:43:25;0.70;99.90
5136;DHT22;2586;48.710;9.202;2022-12-10T05:45:51;0.70;99.90
5136;DHT22;2586;48.710;9.202;2022-12-10T05:48:16;0.60;99.90
5136;DHT22;2586;48.710;9.202;2022-12-10T05:50:42;0.60;99.90
5136;DHT22;2586;48.710;9.202;2022-12-10T05:53:08;0.60;99.90
5136;DHT22;2586;48.710;9.202;2022-12-10T05:55:34;0.60;99.90
5136;DHT22;2586;48.710;9.202;2022-12-10T05:58:00;0.60;99.90
5136;DHT22;2586;48.710;9.202;2022-12-10T06:00:27;0.50;99.90
5136;DHT22;2586;48.710;9.202;2022-12-10T06:02:53;0.60;99.90
5136;DHT22;2586;48.710;9.202;2022-12-10T06:05:19;0.50;99.90
5136;DHT22;2586;48.710;9.202;2022-12-10T06:07:45;0.50;97.10
5136;DHT22;2586;48.710;9.202;2022-12-10T06:10:11;0.50;21.90
5136;DHT22;2586;48.710;9.202;2022-12-10T06:12:38;0.40;26.80
5136;DHT22;2586;48.710;9.202;2022-12-10T06:15:04;0.40;99.90
5136;DHT22;2586;48.710;9.202;2022-12-10T06:17:30;0.40;99.90
5136;DHT22;2586;48.710;9.202;2022-12-10T06:19:55;0.40;99.90
5136;DHT22;2586;48.710;9.202;2022-12-10T06:22:21;0.40;99.90
5136;DHT22;2586;48.710;9.202;2022-12-10T06:24:47;0.40;99.90
5136;DHT22;2586;48.710;9.202;2022-12-10T06:27:12;0.40;99.90
5136;DHT22;2586;48.710;9.202;2022-12-10T06:29:38;0.30;99.90
5136;DHT22;2586;48.710;9.202;2022-12-10T06:32:03;0.30;99.90
5136;DHT22;2586;48.710;9.202;2022-12-10T06:34:29;0.30;99.90
5136;DHT22;2586;48.710;9.202;2022-12-10T06:36:55;0.30;99.90
5136;DHT22;2586;48.710;9.202;2022-12-10T06:39:20;0.30;99.90
5136;DHT22;2586;48.710;9.202;2022-12-10T06:41:46;0.30;99.90
5136;DHT22;2586;48.710;9.202;2022-12-10T06:44:12;0.30;99.90
5136;DHT22;2586;48.710;9.202;2022-12-10T06:46:39;0.30;99.90
5136;DHT22;2586;48.710;9.202;2022-12-10T06:49:06;0.90;58.90
5136;DHT22;2586;48.710;9.202;2022-12-10T06:51:32;1.00;84.50
5136;DHT22;2586;48.710;9.202;2022-12-10T06:53:57;1.20;74.20
5136;DHT22;2586;48.710;9.202;2022-12-10T06:56:23;1.40;99.90
5136;DHT22;2586;48.710;9.202;2022-12-10T06:58:48;1.70;1.00
5136;DHT22;2586;48.710;9.202;2022-12-10T07:01:20;1.40;14.00
5136;DHT22;2586;48.710;9.202;2022-12-10T07:03:53;1.00;1.00
5136;DHT22;2586;48.710;9.202;2022-12-10T07:06:20;0.80;99.90
5136;DHT22;2586;48.710;9.202;2022-12-10T07:08:47;0.60;99.90
5136;DHT22;2586;48.710;9.202;2022-12-10T07:11:14;0.50;99.90
5136;DHT22;2586;48.710;9.202;2022-12-10T07:13:40;0.50;1.00
5136;DHT22;2586;48.710;9.202;2022-12-10T07:16:17;0.40;1.00
5136;DHT22;2586;48.710;9.202;2022-12-10T07:18:43;0.40;99.90
5136;DHT22;2586;48.710;9.202;2022-12-10T07:21:23;0.30;99.90
5136;DHT22;2586;48.710;9.202;2022-12-10T07:23:50;0.30;99.90
5136;DHT22;2586;48.710;9.202;2022-12-10T07:26:16;0.30;99.90
5136;DHT22;2586;48.710;9.202;2022-12-10T07:28:41;0.30;99.90
5136;DHT22;2586;48.710;9.202;2022-12-10T07:31:08;0.30;99.90
5136;DHT22;2586;48.710;9.202;2022-12-10T07:33:35;0.30;99.90
5136;DHT22;2586;48.710;9.202;2022-12-10T07:36:21;0.30;99.90
5136;DHT22;2586;48.710;9.202;2022-12-10T07:38:48;0.30;99.90
5136;DHT22;2586;48.710;9.202;2022-12-10T07:41:14;0.40;99.90
5136;DHT22;2586;48.710;9.202;2022-12-10T07:43:41;0.40;99.90
5136;DHT22;2586;48.710;9.202;2022-12-10T07:46:13;0.40;20.90
5136;DHT22;2586;48.710;9.202;2022-12-10T07:48:40;0.40;1.00
5136;DHT22;2586;48.710;9.202;2022-12-10T07:51:06;0.40;1.00
5136;DHT22;2586;48.710;9.202;2022-12-10T07:53:32;0.40;1.00
5136;DHT22;2586;48.710;9.202;2022-12-10T07:55:58;0.40;1.00
5136;DHT22;2586;48.710;9.202;2022-12-10T07:58:23;0.50;1.00
5136;DHT22;2586;48.710;9.202;2022-12-10T08:00:50;0.50;1.00
5136;DHT22;2586;48.710;9.202;2022-12-10T08:03:16;0.50;99.90
5136;DHT22;2586;48.710;9.202;2022-12-10T08:05:42;0.50;99.90
5136;DHT22;2586;48.710;9.202;2022-12-10T08:08:07;0.50;99.90
5136;DHT22;2586;48.710;9.202;2022-12-10T08:10:34;0.60;99.90
5136;DHT22;2586;48.710;9.202;2022-12-10T08:13:00;0.60;99.90
5136;DHT22;2586;48.710;9.202;2022-12-10T08:15:25;0.60;92.60
5136;DHT22;2586;48.710;9.202;2022-12-10T08:17:53;0.60;45.20
5136;DHT22;2586;48.710;9.202;2022-12-10T08:20:19;0.70;33.50
5136;DHT22;2586;48.710;9.202;2022-12-10T08:22:44;0.70;1.00
5136;DHT22;2586;48.710;9.202;2022-12-10T08:25:10;0.80;1.00
5136;DHT22;2586;48.710;9.202;2022-12-10T08:27:37;0.80;99.90
5136;DHT22;2586;48.710;9.202;2022-12-10T08:30:03;0.90;99.90
5136;DHT22;2586;48.710;9.202;2022-12-10T08:32:29;0.90;99.90
5136;DHT22;2586;48.710;9.202;2022-12-10T08:34:55;0.90;1.00
5136;DHT22;2586;48.710;9.202;2022-12-10T08:37:21;0.90;1.00
5136;DHT22;2586;48.710;9.202;2022-12-10T08:39:46;0.90;1.00
5136;DHT22;2586;48.710;9.202;2022-12-10T08:42:12;0.90;1.00
5136;DHT22;2586;48.710;9.202;2022-12-10T08:44:38;0.80;1.00
5136;DHT22;2586;48.710;9.202;2022-12-10T08:47:03;0.80;12.10
5136;DHT22;2586;48.710;9.202;2022-12-10T08:49:29;0.90;99.90
5136;DHT22;2586;48.710;9.202;2022-12-10T08:51:54;0.80;99.90
5136;DHT22;2586;48.710;9.202;2022-12-10T08:54:20;0.90;99.90
5136;DHT22;2586;48.710;9.202;2022-12-10T08:56:45;1.00;1.00
5136;DHT22;2586;48.710;9.202;2022-12-10T08:59:11;1.00;99.90
5136;DHT22;2586;48.710;9.202;2022-12-10T09:01:37;1.00;50.70
5136;DHT22;2586;48.710;9.202;2022-12-10T09:04:02;1.00;1.00
5136;DHT22;2586;48.710;9.202;2022-12-10T09:06:28;1.00;1.00
5136;DHT22;2586;48.710;9.202;2022-12-10T09:08:54;1.00;1.00
5136;DHT22;2586;48.710;9.202;2022-12-10T09:11:28;1.00;99.90
5136;DHT22;2586;48.710;9.202;2022-12-10T09:13:54;1.10;1.00
5136;DHT22;2586;48.710;9.202;2022-12-10T09:16:20;1.10;99.90
5136;DHT22;2586;48.710;9.202;2022-12-10T09:18:46;1.20;99.90
5136;DHT22;2586;48.710;9.202;2022-12-10T09:21:14;1.20;99.90
5136;DHT22;2586;48.710;9.202;2022-12-10T09:23:41;1.20;99.90
5136;DHT22;2586;48.710;9.202;2022-12-10T09:26:13;1.10;99.90
5136;DHT22;2586;48.710;9.202;2022-12-10T09:28:39;1.10;7.60
5136;DHT22;2586;48.710;9.202;2022-12-10T09:31:07;1.10;42.70
5136;DHT22;2586;48.710;9.202;2022-12-10T09:33:34;1.10;99.90
5136;DHT22;2586;48.710;9.202;2022-12-10T09:36:03;1.10;58.30
5136;DHT22;2586;48.710;9.202;2022-12-10T09:38:29;1.10;99.90
5136;DHT22;2586;48.710;9.202;2022-12-10T09:40:59;1.20;1.00
5136;DHT22;2586;48.710;9.202;2022-12-10T09:46:38;1.20;1.00
5136;DHT22;2586;48.710;9.202;2022-12-10T09:51:39;1.20;1.00
5136;DHT22;2586;48.710;9.202;2022-12-10T09:54:19;1.20;99.90
5136;DHT22;2586;48.710;9.202;2022-12-10T09:56:48;1.30;1.00
5136;DHT22;2586;48.710;9.202;2022-12-10T09:59:42;1.30;99.90
5136;DHT22;2586;48.710;9.202;2022-12-10T10:02:28;1.20;99.90
5136;DHT22;2586;48.710;9.202;2022-12-10T10:07:45;1.20;99.90
5136;DHT22;2586;48.710;9.202;2022-12-10T10:12:44;1.30;99.90
5136;DHT22;2586;48.710;9.202;2022-12-10T10:15:14;1.30;1.00
5136;DHT22;2586;48.710;9.202;2022-12-10T10:17:41;1.30;99.90
5136;DHT22;2586;48.710;9.202;2022-12-10T10:20:11;1.40;1.00
5136;DHT22;2586;48.710;9.202;2022-12-10T10:22:38;1.40;1.00
5136;DHT22;2586;48.710;9.202;2022-12-10T10:25:05;1.40;99.90
5136;DHT22;2586;48.710;9.202;2022-12-10T10:27:31;1.40;99.90
5136;DHT22;2586;48.710;9.202;2022-12-10T10:30:03;1.50;99.90
5136;DHT22;2586;48.710;9.202;2022-12-10T10:32:53;1.40;99.90
5136;DHT22;2586;48.710;9.202;2022-12-10T10:35:28;1.40;1.00
5136;DHT22;2586;48.710;9.202;2022-12-10T10:38:06;1.50;99.90
5136;DHT22;2586;48.710;9.202;2022-12-10T10:40:40;1.50;1.00
5136;DHT22;2586;48.710;9.202;2022-12-10T10:43:06;1.80;1.00
5136;DHT22;2586;48.710;9.202;2022-12-10T10:45:41;1.90;1.00
5136;DHT22;2586;48.710;9.202;2022-12-10T10:48:19;2.00;99.90
5136;DHT22;2586;48.710;9.202;2022-12-10T10:50:53;2.00;1.00
5136;DHT22;2586;48.710;9.202;2022-12-10T10:53:27;2.10;1.00
5136;DHT22;2586;48.710;9.202;2022-12-10T10:55:55;2.00;1.00
5136;DHT22;2586;48.710;9.202;2022-12-10T10:58:23;2.00;1.00
5136;DHT22;2586;48.710;9.202;2022-12-10T11:01:04;1.80;1.00
5136;DHT22;2586;48.710;9.202;2022-12-10T11:03:33;1.80;1.00
5136;DHT22;2586;48.710;9.202;2022-12-10T11:06:00;1.70;1.00
5136;DHT22;2586;48.710;9.202;2022-12-10T11:08:29;1.60;99.90
5136;DHT22;2586;48.710;9.202;2022-12-10T11:11:03;1.60;1.00
5136;DHT22;2586;48.710;9.202;2022-12-10T11:13:34;1.60;7.40
5136;DHT22;2586;48.710;9.202;2022-12-10T11:16:17;1.60;99.90
5136;DHT22;2586;48.710;9.202;2022-12-10T11:19:01;1.60;1.00
5136;DHT22;2586;48.710;9.202;2022-12-10T11:21:33;1.60;99.90
5136;DHT22;2586;48.710;9.202;2022-12-10T11:24:00;1.70;99.90
5136;DHT22;2586;48.710;9.202;2022-12-10T11:37:29;1.80;99.90
5136;DHT22;2586;48.710;9.202;2022-12-10T11:43:16;1.80;99.90
5136;DHT22;2586;48.710;9.202;2022-12-10T11:48:48;2.80;1.00
5136;DHT22;2586;48.710;9.202;2022-12-10T11:51:53;2.80;99.90
5136;DHT22;2586;48.710;9.202;2022-12-10T11:54:44;2.60;99.90
5136;DHT22;2586;48.710;9.202;2022-12-10T12:00:11;3.30;84.90
5136;DHT22;2586;48.710;9.202;2022-12-10T12:09:01;3.30;56.10
5136;DHT22;2586;48.710;9.202;2022-12-10T12:12:00;3.40;1.00
5136;DHT22;2586;48.710;9.202;2022-12-10T12:14:45;3.50;1.00
5136;DHT22;2586;48.710;9.202;2022-12-10T12:17:27;3.40;1.00
5136;DHT22;2586;48.710;9.202;2022-12-10T12:19:59;3.70;99.90
5136;DHT22;2586;48.710;9.202;2022-12-10T12:22:29;3.10;1.00
5136;DHT22;2586;48.710;9.202;2022-12-10T12:27:43;2.50;99.90
5136;DHT22;2586;48.710;9.202;2022-12-10T12:30:16;2.40;99.90
5136;DHT22;2586;48.710;9.202;2022-12-10T12:33:09;2.30;1.00
5136;DHT22;2586;48.710;9.202;2022-12-10T12:35:49;2.20;1.00
5136;DHT22;2586;48.710;9.202;2022-12-10T12:38:32;2.20;1.00
5136;DHT22;2586;48.710;9.202;2022-12-10T12:43:58;2.20;1.00
5136;DHT22;2586;48.710;9.202;2022-12-10T12:46:42;2.20;99.90
5136;DHT22;2586;48.710;9.202;2022-12-10T12:49:32;2.30;1.00
5136;DHT22;2586;48.710;9.202;2022-12-10T12:52:18;2.30;99.90
5136;DHT22;2586;48.710;9.202;2022-12-10T12:54:46;2.30;99.90
5136;DHT22;2586;48.710;9.202;2022-12-10T12:57:27;2.20;99.90
5136;DHT22;2586;48.710;9.202;2022-12-10T13:00:03;2.20;1.00
5136;DHT22;2586;48.710;9.202;2022-12-10T13:05:33;2.10;1.00
5136;DHT22;2586;48.710;9.202;2022-12-10T13:13:39;1.90;1.00
5136;DHT22;2586;48.710;9.202;2022-12-10T13:32:23;1.60;99.90
5136;DHT22;2586;48.710;9.202;2022-12-10T13:42:43;1.50;1.00
5136;DHT22;2586;48.710;9.202;2022-12-10T13:45:34;1.40;99.90
5136;DHT22;2586;48.710;9.202;2022-12-10T13:48:22;1.40;1.00
5136;DHT22;2586;48.710;9.202;2022-12-10T13:51:21;1.30;86.50
5136;DHT22;2586;48.710;9.202;2022-12-10T13:54:07;1.30;99.90
5136;DHT22;2586;48.710;9.202;2022-12-10T13:56:44;1.30;1.00
5136;DHT22;2586;48.710;9.202;2022-12-10T14:07:47;1.20;1.00
5136;DHT22;2586;48.710;9.202;2022-12-10T14:10:16;1.20;99.90
5136;DHT22;2586;48.710;9.202;2022-12-10T14:12:44;1.20;99.90
5136;DHT22;2586;48.710;9.202;2022-12-10T14:15:23;1.10;99.90
5136;DHT22;2586;48.710;9.202;2022-12-10T14:17:51;1.00;1.00
5136;DHT22;2586;48.710;9.202;2022-12-10T14:20:21;0.90;1.00
5136;DHT22;2586;48.710;9.202;2022-12-10T14:22:52;0.80;1.00
5136;DHT22;2586;48.710;9.202;2022-12-10T14:25:21;0.80;1.00
5136;DHT22;2586;48.710;9.202;2022-12-10T14:27:52;0.80;99.90
5136;DHT22;2586;48.710;9.202;2022-12-10T14:30:21;0.80;1.00
5136;DHT22;2586;48.710;9.202;2022-12-10T14:32:47;0.70;99.90
5136;DHT22;2586;48.710;9.202;2022-12-10T14:35:21;0.70;99.90
5136;DHT22;2586;48.710;9.202;2022-12-10T14:37:49;0.80;99.90
5136;DHT22;2586;48.710;9.202;2022-12-10T14:40:23;0.70;1.00
5136;DHT22;2586;48.710;9.202;2022-12-10T14:42:50;0.70;2.10
5136;DHT22;2586;48.710;9.202;2022-12-10T14:45:18;0.70;1.00
5136;DHT22;2586;48.710;9.202;2022-12-10T14:47:44;0.70;1.00
5136;DHT22;2586;48.710;9.202;2022-12-10T14:50:13;0.70;1.00
5136;DHT22;2586;48.710;9.202;2022-12-10T14:52:42;0.70;1.00
5136;DHT22;2586;48.710;9.202;2022-12-10T14:55:15;0.70;1.00
5136;DHT22;2586;48.710;9.202;2022-12-10T14:57:48;0.70;85.90
5136;DHT22;2586;48.710;9.202;2022-12-10T15:00:19;0.70;1.00
5136;DHT22;2586;48.710;9.202;2022-12-10T15:02:48;0.60;1.00
5136;DHT22;2586;48.710;9.202;2022-12-10T15:05:24;0.60;1.00
5136;DHT22;2586;48.710;9.202;2022-12-10T15:07:56;0.70;1.00
5136;DHT22;2586;48.710;9.202;2022-12-10T15:10:28;0.60;1.00
5136;DHT22;2586;48.710;9.202;2022-12-10T15:12:57;0.50;1.00
5136;DHT22;2586;48.710;9.202;2022-12-10T15:15:33;0.50;1.00
5136;DHT22;2586;48.710;9.202;2022-12-10T15:23:19;0.50;1.00
5136;DHT22;2586;48.710;9.202;2022-12-10T15:25:47;0.50;1.00
5136;DHT22;2586;48.710;9.202;2022-12-10T15:30:48;0.40;99.90
5136;DHT22;2586;48.710;9.202;2022-12-10T15:33:44;0.40;1.00
5136;DHT22;2586;48.710;9.202;2022-12-10T15:38:50;0.40;99.90
5136;DHT22;2586;48.710;9.202;2022-12-10T15:41:33;0.40;99.90
5136;DHT22;2586;48.710;9.202;2022-12-10T15:44:04;0.30;99.90
5136;DHT22;2586;48.710;9.202;2022-12-10T15:46:30;0.30;99.90
5136;DHT22;2586;48.710;9.202;2022-12-10T15:48:56;0.30;99.90
5136;DHT22;2586;48.710;9.202;2022-12-10T15:51:22;0.30;1.00
5136;DHT22;2586;48.710;9.202;2022-12-10T15:53:47;0.20;1.00
5136;DHT22;2586;48.710;9.202;2022-12-10T15:56:13;0.20;73.60
5136;DHT22;2586;48.710;9.202;2022-12-10T15:58:39;0.20;99.90
5136;DHT22;2586;48.710;9.202;2022-12-10T16:01:06;0.20;1.00
5136;DHT22;2586;48.710;9.202;2022-12-10T16:03:33;0.20;1.00
5136;DHT22;2586;48.710;9.202;2022-12-10T16:05:59;0.20;1.00
5136;DHT22;2586;48.710;9.202;2022-12-10T16:08:27;0.10;99.90
5136;DHT22;2586;48.710;9.202;2022-12-10T16:10:55;0.10;99.90
5136;DHT22;2586;48.710;9.202;2022-12-10T16:13:25;0.10;1.00
5136;DHT22;2586;48.710;9.202;2022-12-10T16:16:09;0.10;99.90
5136;DHT22;2586;48.710;9.202;2022-12-10T16:18:35;0.00;99.90
5136;DHT22;2586;48.710;9.202;2022-12-10T16:21:03;0.00;99.90
5136;DHT22;2586;48.710;9.202;2022-12-10T16:23:29;0.00;1.00
5136;DHT22;2586;48.710;9.202;2022-12-10T16:25:56;0.00;1.00
5136;DHT22;2586;48.710;9.202;2022-12-10T16:28:23;0.00;1.00
5136;DHT22;2586;48.710;9.202;2022-12-10T16:30:50;0.00;1.00
5136;DHT22;2586;48.710;9.202;2022-12-10T16:33:18;0.00;1.00
5136;DHT22;2586;48.710;9.202;2022-12-10T16:35:45;0.00;1.00
5136;DHT22;2586;48.710;9.202;2022-12-10T16:38:11;-0.10;1.00
5136;DHT22;2586;48.710;9.202;2022-12-10T16:40:38;0.00;1.00
5136;DHT22;2586;48.710;9.202;2022-12-10T16:43:04;0.00;1.00
5136;DHT22;2586;48.710;9.202;2022-12-10T16:45:35;-0.10;1.00
5136;DHT22;2586;48.710;9.202;2022-12-10T16:48:02;0.00;1.00
5136;DHT22;2586;48.710;9.202;2022-12-10T16:50:28;-0.10;99.90
5136;DHT22;2586;48.710;9.202;2022-12-10T16:52:55;-0.10;99.90
5136;DHT22;2586;48.710;9.202;2022-12-10T16:55:23;0.00;99.90
5136;DHT22;2586;48.710;9.202;2022-12-10T16:57:50;0.00;94.10
5136;DHT22;2586;48.710;9.202;2022-12-10T17:00:21;0.00;1.00
5136;DHT22;2586;48.710;9.202;2022-12-10T17:02:48;0.00;99.90
5136;DHT22;2586;48.710;9.202;2022-12-10T17:05:31;0.00;99.90
5136;DHT22;2586;48.710;9.202;2022-12-10T17:07:58;-0.10;36.10
5136;DHT22;2586;48.710;9.202;2022-12-10T17:10:24;-0.10;1.00
5136;DHT22;2586;48.710;9.202;2022-12-10T17:13:13;-0.10;1.00
5136;DHT22;2586;48.710;9.202;2022-12-10T17:15:40;-0.10;99.90
5136;DHT22;2586;48.710;9.202;2022-12-10T17:18:08;-0.10;88.70
5136;DHT22;2586;48.710;9.202;2022-12-10T17:20:33;-0.10;99.90
5136;DHT22;2586;48.710;9.202;2022-12-10T17:22:59;-0.20;99.90
5136;DHT22;2586;48.710;9.202;2022-12-10T17:25:24;-0.20;99.90
5136;DHT22;2586;48.710;9.202;2022-12-10T17:27:50;-0.20;99.90
5136;DHT22;2586;48.710;9.202;2022-12-10T17:30:16;-0.20;1.00
5136;DHT22;2586;48.710;9.202;2022-12-10T17:32:42;-0.20;1.00
5136;DHT22;2586;48.710;9.202;2022-12-10T17:35:09;-0.30;1.00
5136;DHT22;2586;48.710;9.202;2022-12-10T17:37:35;-0.30;99.90
5136;DHT22;2586;48.710;9.202;2022-12-10T17:40:05;-0.30;12.50
5136;DHT22;2586;48.710;9.202;2022-12-10T17:42:35;-0.30;1.00
5136;DHT22;2586;48.710;9.202;2022-12-10T17:45:01;-0.30;52.80
5136;DHT22;2586;48.710;9.202;2022-12-10T17:47:26;-0.30;99.90
5136;DHT22;2586;48.710;9.202;2022-12-10T17:49:53;-0.30;99.90
5136;DHT22;2586;48.710;9.202;2022-12-10T17:52:18;-0.40;1.00
5136;DHT22;2586;48.710;9.202;2022-12-10T17:54:44;-0.40;1.00
5136;DHT22;2586;48.710;9.202;2022-12-10T17:57:21;-0.40;1.00
5136;DHT22;2586;48.710;9.202;2022-12-10T17:59:47;-0.40;1.00
5136;DHT22;2586;48.710;9.202;2022-12-10T18:02:13;-0.30;1.00
5136;DHT22;2586;48.710;9.202;2022-12-10T18:04:39;-0.30;1.00
5136;DHT22;2586;48.710;9.202;2022-12-10T18:07:16;-0.30;1.00
5136;DHT22;2586;48.710;9.202;2022-12-10T18:09:43;-0.20;1.00
5136;DHT22;2586;48.710;9.202;2022-12-10T18:12:09;-0.30;1.00
5136;DHT22;2586;48.710;9.202;2022-12-10T18:14:35;-0.30;31.30
5136;DHT22;2586;48.710;9.202;2022-12-10T18:17:01;-0.40;99.90
5136;DHT22;2586;48.710;9.202;2022-12-10T18:19:27;-0.40;99.90
5136;DHT22;2586;48.710;9.202;2022-12-10T18:21:52;-0.50;99.90
5136;DHT22;2586;48.710;9.202;2022-12-10T18:24:18;0.20;1.00
5136;DHT22;2586;48.710;9.202;2022-12-10T18:26:43;0.60;1.00
5136;DHT22;2586;48.710;9.202;2022-12-10T18:29:11;0.60;99.90
5136;DHT22;2586;48.710;9.202;2022-12-10T18:31:41;0.90;99.90